sensor_id;sensor_type;location;lat;lon;timestamp;P1;durP1;ratioP1;P2;durP2;ratioP2
70838;SDS011;58464;52.298;4.852;2022-07-29T00:01:17;3.55;;;1.17;;
70838;SDS011;58464;52.298;4.852;2022-07-29T00:03:42;6.10;;;1.17;;
70838;SDS011;58464;52.298;4.852;2022-07-29T00:06:08;0.85;;;0.47;;
70838;SDS011;58464;52.298;4.852;2022-07-29T00:08:34;5.22;;;1.15;;
70838;SDS011;58464;52.298;4.852;2022-07-29T00:11:00;4.47;;;1.20;;
70838;SDS011;58464;52.298;4.852;2022-07-29T00:13:25;4.70;;;1.55;;
70838;SDS011;58464;52.298;4.852;2022-07-29T00:15:50;4.22;;;1.00;;
70838;SDS011;58464;52.298;4.852;2022-07-29T00:18:16;3.53;;;1.02;;
70838;SDS011;58464;52.298;4.852;2022-07-29T00:20:41;3.30;;;1.42;;
70838;SDS011;58464;52.298;4.852;2022-07-29T00:23:07;4.68;;;1.30;;
70838;SDS011;58464;52.298;4.852;2022-07-29T00:25:32;5.78;;;1.40;;
70838;SDS011;58464;52.298;4.852;2022-07-29T00:27:58;2.20;;;1.30;;
70838;SDS011;58464;52.298;4.852;2022-07-29T00:30:26;5.40;;;1.20;;
70838;SDS011;58464;52.298;4.852;2022-07-29T00:32:51;5.15;;;1.50;;
70838;SDS011;58464;52.298;4.852;2022-07-29T00:35:16;3.40;;;1.30;;
70838;SDS011;58464;52.298;4.852;2022-07-29T00:38:05;4.15;;;1.10;;
70838;SDS011;58464;52.298;4.852;2022-07-29T00:40:30;2.28;;;1.10;;
70838;SDS011;58464;52.298;4.852;2022-07-29T00:42:56;2.90;;;1.55;;
70838;SDS011;58464;52.298;4.852;2022-07-29T00:45:21;3.20;;;1.05;;
70838;SDS011;58464;52.298;4.852;2022-07-29T00:47:47;6.13;;;1.15;;
70838;SDS011;58464;52.298;4.852;2022-07-29T00:50:13;7.18;;;1.70;;
70838;SDS011;58464;52.298;4.852;2022-07-29T00:52:40;3.67;;;2.00;;
70838;SDS011;58464;52.298;4.852;2022-07-29T00:55:08;4.88;;;1.98;;
70838;SDS011;58464;52.298;4.852;2022-07-29T00:57:36;5.30;;;1.48;;
70838;SDS011;58464;52.298;4.852;2022-07-29T01:00:05;4.88;;;1.38;;
70838;SDS011;58464;52.298;4.852;2022-07-29T01:02:33;7.25;;;2.10;;
70838;SDS011;58464;52.298;4.852;2022-07-29T01:04:58;8.55;;;1.88;;
70838;SDS011;58464;52.298;4.852;2022-07-29T01:07:25;5.13;;;2.20;;
70838;SDS011;58464;52.298;4.852;2022-07-29T01:09:51;4.45;;;1.20;;
70838;SDS011;58464;52.298;4.852;2022-07-29T01:12:22;5.78;;;1.65;;
70838;SDS011;58464;52.298;4.852;2022-07-29T01:14:49;5.88;;;1.60;;
70838;SDS011;58464;52.298;4.852;2022-07-29T01:20:10;11.55;;;1.85;;
70838;SDS011;58464;52.298;4.852;2022-07-29T01:26:03;5.25;;;1.95;;
70838;SDS011;58464;52.298;4.852;2022-07-29T01:31:06;3.90;;;1.98;;
70838;SDS011;58464;52.298;4.852;2022-07-29T01:33:37;7.22;;;2.05;;
70838;SDS011;58464;52.298;4.852;2022-07-29T01:36:36;5.15;;;1.58;;
70838;SDS011;58464;52.298;4.852;2022-07-29T01:39:05;5.28;;;2.20;;
70838;SDS011;58464;52.298;4.852;2022-07-29T01:41:38;7.40;;;2.72;;
70838;SDS011;58464;52.298;4.852;2022-07-29T01:44:22;5.70;;;2.22;;
70838;SDS011;58464;52.298;4.852;2022-07-29T01:46:58;8.00;;;2.55;;
70838;SDS011;58464;52.298;4.852;2022-07-29T01:49:30;8.82;;;3.53;;
70838;SDS011;58464;52.298;4.852;2022-07-29T01:52:08;8.07;;;2.45;;
70838;SDS011;58464;52.298;4.852;2022-07-29T01:54:45;9.70;;;2.72;;
70838;SDS011;58464;52.298;4.852;2022-07-29T01:57:16;5.90;;;2.20;;
70838;SDS011;58464;52.298;4.852;2022-07-29T01:59:45;6.70;;;2.35;;
70838;SDS011;58464;52.298;4.852;2022-07-29T02:02:13;7.40;;;2.60;;
70838;SDS011;58464;52.298;4.852;2022-07-29T02:04:41;8.20;;;2.42;;
70838;SDS011;58464;52.298;4.852;2022-07-29T02:07:10;7.65;;;1.98;;
70838;SDS011;58464;52.298;4.852;2022-07-29T02:09:39;6.85;;;2.20;;
70838;SDS011;58464;52.298;4.852;2022-07-29T02:12:06;9.88;;;3.17;;
70838;SDS011;58464;52.298;4.852;2022-07-29T02:14:35;6.65;;;2.42;;
70838;SDS011;58464;52.298;4.852;2022-07-29T02:17:03;7.55;;;2.58;;
70838;SDS011;58464;52.298;4.852;2022-07-29T02:19:29;8.27;;;2.92;;
70838;SDS011;58464;52.298;4.852;2022-07-29T02:21:57;11.10;;;3.05;;
70838;SDS011;58464;52.298;4.852;2022-07-29T02:24:26;9.65;;;2.95;;
70838;SDS011;58464;52.298;4.852;2022-07-29T02:26:53;8.50;;;2.58;;
70838;SDS011;58464;52.298;4.852;2022-07-29T02:29:22;7.13;;;2.92;;
70838;SDS011;58464;52.298;4.852;2022-07-29T02:31:50;7.55;;;2.28;;
70838;SDS011;58464;52.298;4.852;2022-07-29T02:34:18;5.82;;;1.95;;
70838;SDS011;58464;52.298;4.852;2022-07-29T02:36:45;2.72;;;1.60;;
70838;SDS011;58464;52.298;4.852;2022-07-29T02:39:13;5.28;;;1.90;;
70838;SDS011;58464;52.298;4.852;2022-07-29T02:41:47;5.28;;;1.60;;
70838;SDS011;58464;52.298;4.852;2022-07-29T02:44:16;2.25;;;1.25;;
70838;SDS011;58464;52.298;4.852;2022-07-29T02:46:54;2.47;;;1.20;;
70838;SDS011;58464;52.298;4.852;2022-07-29T02:49:44;8.80;;;1.55;;
70838;SDS011;58464;52.298;4.852;2022-07-29T02:55:30;3.55;;;1.30;;
70838;SDS011;58464;52.298;4.852;2022-07-29T02:58:08;2.75;;;1.17;;
70838;SDS011;58464;52.298;4.852;2022-07-29T03:00:43;2.83;;;1.25;;
70838;SDS011;58464;52.298;4.852;2022-07-29T03:03:12;1.52;;;0.93;;
70838;SDS011;58464;52.298;4.852;2022-07-29T03:05:40;3.15;;;1.20;;
70838;SDS011;58464;52.298;4.852;2022-07-29T03:08:06;4.18;;;1.17;;
70838;SDS011;58464;52.298;4.852;2022-07-29T03:10:34;4.28;;;1.30;;
70838;SDS011;58464;52.298;4.852;2022-07-29T03:13:00;2.88;;;1.13;;
70838;SDS011;58464;52.298;4.852;2022-07-29T03:15:27;3.05;;;1.20;;
70838;SDS011;58464;52.298;4.852;2022-07-29T03:17:54;2.92;;;0.98;;
70838;SDS011;58464;52.298;4.852;2022-07-29T03:20:20;3.83;;;1.27;;
70838;SDS011;58464;52.298;4.852;2022-07-29T03:22:46;3.25;;;0.93;;
70838;SDS011;58464;52.298;4.852;2022-07-29T03:25:15;1.48;;;0.93;;
70838;SDS011;58464;52.298;4.852;2022-07-29T03:27:42;2.58;;;1.15;;
70838;SDS011;58464;52.298;4.852;2022-07-29T03:30:09;2.42;;;1.08;;
70838;SDS011;58464;52.298;4.852;2022-07-29T03:32:35;5.28;;;1.30;;
70838;SDS011;58464;52.298;4.852;2022-07-29T03:35:01;4.47;;;1.30;;
70838;SDS011;58464;52.298;4.852;2022-07-29T03:37:27;3.00;;;1.20;;
70838;SDS011;58464;52.298;4.852;2022-07-29T03:39:53;2.95;;;1.05;;
70838;SDS011;58464;52.298;4.852;2022-07-29T03:42:20;3.63;;;1.33;;
70838;SDS011;58464;52.298;4.852;2022-07-29T03:44:53;4.90;;;1.05;;
70838;SDS011;58464;52.298;4.852;2022-07-29T03:47:22;4.75;;;1.40;;
70838;SDS011;58464;52.298;4.852;2022-07-29T03:49:50;1.63;;;0.90;;
70838;SDS011;58464;52.298;4.852;2022-07-29T03:52:19;4.30;;;1.10;;
70838;SDS011;58464;52.298;4.852;2022-07-29T03:54:45;5.38;;;1.30;;
70838;SDS011;58464;52.298;4.852;2022-07-29T03:57:11;6.32;;;1.58;;
70838;SDS011;58464;52.298;4.852;2022-07-29T03:59:38;2.72;;;1.15;;
70838;SDS011;58464;52.298;4.852;2022-07-29T04:02:05;8.40;;;1.33;;
70838;SDS011;58464;52.298;4.852;2022-07-29T04:04:34;5.90;;;1.20;;
70838;SDS011;58464;52.298;4.852;2022-07-29T04:07:00;2.47;;;1.25;;
70838;SDS011;58464;52.298;4.852;2022-07-29T04:09:25;6.38;;;1.15;;
70838;SDS011;58464;52.298;4.852;2022-07-29T04:11:51;5.75;;;1.27;;
70838;SDS011;58464;52.298;4.852;2022-07-29T04:14:17;8.30;;;1.85;;
70838;SDS011;58464;52.298;4.852;2022-07-29T04:16:43;5.22;;;1.27;;
70838;SDS011;58464;52.298;4.852;2022-07-29T04:19:08;1.92;;;1.10;;
70838;SDS011;58464;52.298;4.852;2022-07-29T04:21:37;4.00;;;1.45;;
70838;SDS011;58464;52.298;4.852;2022-07-29T04:24:03;5.05;;;1.23;;
70838;SDS011;58464;52.298;4.852;2022-07-29T04:26:29;3.97;;;1.73;;
70838;SDS011;58464;52.298;4.852;2022-07-29T04:28:54;8.75;;;2.00;;
70838;SDS011;58464;52.298;4.852;2022-07-29T04:31:20;7.45;;;1.33;;
70838;SDS011;58464;52.298;4.852;2022-07-29T04:33:45;5.95;;;1.40;;
70838;SDS011;58464;52.298;4.852;2022-07-29T04:36:11;3.00;;;1.08;;
70838;SDS011;58464;52.298;4.852;2022-07-29T04:38:37;2.42;;;0.85;;
70838;SDS011;58464;52.298;4.852;2022-07-29T04:41:02;4.95;;;1.20;;
70838;SDS011;58464;52.298;4.852;2022-07-29T04:43:28;3.67;;;1.30;;
70838;SDS011;58464;52.298;4.852;2022-07-29T04:45:53;4.60;;;1.25;;
70838;SDS011;58464;52.298;4.852;2022-07-29T04:48:20;5.35;;;1.63;;
70838;SDS011;58464;52.298;4.852;2022-07-29T04:50:46;5.28;;;1.30;;
70838;SDS011;58464;52.298;4.852;2022-07-29T04:53:11;6.03;;;1.48;;
70838;SDS011;58464;52.298;4.852;2022-07-29T04:55:37;1.75;;;0.95;;
70838;SDS011;58464;52.298;4.852;2022-07-29T04:58:02;4.13;;;1.27;;
70838;SDS011;58464;52.298;4.852;2022-07-29T05:00:28;3.83;;;1.30;;
70838;SDS011;58464;52.298;4.852;2022-07-29T05:02:53;7.05;;;1.63;;
70838;SDS011;58464;52.298;4.852;2022-07-29T05:05:18;5.65;;;1.92;;
70838;SDS011;58464;52.298;4.852;2022-07-29T05:07:44;10.15;;;1.67;;
70838;SDS011;58464;52.298;4.852;2022-07-29T05:10:09;10.05;;;1.80;;
70838;SDS011;58464;52.298;4.852;2022-07-29T05:12:37;6.57;;;2.38;;
70838;SDS011;58464;52.298;4.852;2022-07-29T05:15:02;9.30;;;2.67;;
70838;SDS011;58464;52.298;4.852;2022-07-29T05:17:28;7.68;;;2.58;;
70838;SDS011;58464;52.298;4.852;2022-07-29T05:19:53;4.00;;;2.10;;
70838;SDS011;58464;52.298;4.852;2022-07-29T05:22:19;10.52;;;2.67;;
70838;SDS011;58464;52.298;4.852;2022-07-29T05:24:45;6.43;;;2.88;;
70838;SDS011;58464;52.298;4.852;2022-07-29T05:27:11;6.82;;;2.45;;
70838;SDS011;58464;52.298;4.852;2022-07-29T05:29:37;6.95;;;3.17;;
70838;SDS011;58464;52.298;4.852;2022-07-29T05:32:03;7.97;;;2.55;;
70838;SDS011;58464;52.298;4.852;2022-07-29T05:34:29;9.07;;;2.80;;
70838;SDS011;58464;52.298;4.852;2022-07-29T05:36:54;9.80;;;2.53;;
70838;SDS011;58464;52.298;4.852;2022-07-29T05:39:20;7.40;;;2.15;;
70838;SDS011;58464;52.298;4.852;2022-07-29T05:41:45;4.70;;;2.10;;
70838;SDS011;58464;52.298;4.852;2022-07-29T05:44:11;7.15;;;2.65;;
70838;SDS011;58464;52.298;4.852;2022-07-29T05:46:38;8.20;;;2.58;;
70838;SDS011;58464;52.298;4.852;2022-07-29T05:49:03;9.07;;;2.92;;
70838;SDS011;58464;52.298;4.852;2022-07-29T05:51:31;6.35;;;2.17;;
70838;SDS011;58464;52.298;4.852;2022-07-29T05:53:57;6.18;;;2.38;;
70838;SDS011;58464;52.298;4.852;2022-07-29T05:56:22;7.65;;;2.95;;
70838;SDS011;58464;52.298;4.852;2022-07-29T05:58:48;8.43;;;3.70;;
70838;SDS011;58464;52.298;4.852;2022-07-29T06:01:13;9.48;;;2.92;;
70838;SDS011;58464;52.298;4.852;2022-07-29T06:03:39;3.13;;;2.00;;
70838;SDS011;58464;52.298;4.852;2022-07-29T06:06:06;7.68;;;2.00;;
70838;SDS011;58464;52.298;4.852;2022-07-29T06:08:32;9.98;;;2.40;;
70838;SDS011;58464;52.298;4.852;2022-07-29T06:10:58;9.82;;;2.00;;
70838;SDS011;58464;52.298;4.852;2022-07-29T06:13:24;5.97;;;2.70;;
70838;SDS011;58464;52.298;4.852;2022-07-29T06:15:50;9.02;;;2.45;;
70838;SDS011;58464;52.298;4.852;2022-07-29T06:18:15;5.00;;;1.88;;
70838;SDS011;58464;52.298;4.852;2022-07-29T06:20:41;9.65;;;2.55;;
70838;SDS011;58464;52.298;4.852;2022-07-29T06:23:07;5.82;;;2.22;;
70838;SDS011;58464;52.298;4.852;2022-07-29T06:25:32;4.40;;;1.92;;
70838;SDS011;58464;52.298;4.852;2022-07-29T06:28:00;6.18;;;1.70;;
70838;SDS011;58464;52.298;4.852;2022-07-29T06:30:26;5.10;;;2.10;;
70838;SDS011;58464;52.298;4.852;2022-07-29T06:32:51;5.13;;;1.80;;
70838;SDS011;58464;52.298;4.852;2022-07-29T06:35:17;8.45;;;1.85;;
70838;SDS011;58464;52.298;4.852;2022-07-29T06:37:43;4.53;;;1.83;;
70838;SDS011;58464;52.298;4.852;2022-07-29T06:40:08;6.43;;;2.20;;
70838;SDS011;58464;52.298;4.852;2022-07-29T06:42:52;10.43;;;1.75;;
70838;SDS011;58464;52.298;4.852;2022-07-29T06:45:18;7.75;;;1.67;;
70838;SDS011;58464;52.298;4.852;2022-07-29T06:47:43;11.60;;;2.25;;
70838;SDS011;58464;52.298;4.852;2022-07-29T06:50:09;5.00;;;1.50;;
70838;SDS011;58464;52.298;4.852;2022-07-29T06:52:37;3.92;;;1.60;;
70838;SDS011;58464;52.298;4.852;2022-07-29T06:55:03;3.53;;;1.60;;
70838;SDS011;58464;52.298;4.852;2022-07-29T06:57:30;11.82;;;1.85;;
70838;SDS011;58464;52.298;4.852;2022-07-29T06:59:56;5.10;;;1.80;;
70838;SDS011;58464;52.298;4.852;2022-07-29T07:02:22;5.68;;;1.77;;
70838;SDS011;58464;52.298;4.852;2022-07-29T07:04:47;9.38;;;1.65;;
70838;SDS011;58464;52.298;4.852;2022-07-29T07:07:13;6.30;;;1.60;;
70838;SDS011;58464;52.298;4.852;2022-07-29T07:09:38;5.82;;;1.60;;
70838;SDS011;58464;52.298;4.852;2022-07-29T07:12:04;8.80;;;1.67;;
70838;SDS011;58464;52.298;4.852;2022-07-29T07:14:29;4.97;;;1.52;;
70838;SDS011;58464;52.298;4.852;2022-07-29T07:16:55;8.55;;;2.03;;
70838;SDS011;58464;52.298;4.852;2022-07-29T07:19:20;5.75;;;1.70;;
70838;SDS011;58464;52.298;4.852;2022-07-29T07:21:46;8.60;;;1.85;;
70838;SDS011;58464;52.298;4.852;2022-07-29T07:24:11;5.25;;;1.50;;
70838;SDS011;58464;52.298;4.852;2022-07-29T07:26:36;7.43;;;1.95;;
70838;SDS011;58464;52.298;4.852;2022-07-29T07:29:02;4.68;;;1.80;;
70838;SDS011;58464;52.298;4.852;2022-07-29T07:31:28;5.78;;;1.80;;
70838;SDS011;58464;52.298;4.852;2022-07-29T07:33:54;9.00;;;2.53;;
70838;SDS011;58464;52.298;4.852;2022-07-29T07:36:20;5.25;;;1.98;;
70838;SDS011;58464;52.298;4.852;2022-07-29T07:38:46;3.45;;;1.45;;
70838;SDS011;58464;52.298;4.852;2022-07-29T07:41:12;5.60;;;1.92;;
70838;SDS011;58464;52.298;4.852;2022-07-29T07:43:37;2.67;;;1.30;;
70838;SDS011;58464;52.298;4.852;2022-07-29T07:46:03;5.03;;;1.38;;
70838;SDS011;58464;52.298;4.852;2022-07-29T07:48:29;3.95;;;1.65;;
70838;SDS011;58464;52.298;4.852;2022-07-29T07:50:55;6.10;;;1.42;;
70838;SDS011;58464;52.298;4.852;2022-07-29T07:53:20;14.35;;;1.83;;
70838;SDS011;58464;52.298;4.852;2022-07-29T07:55:46;7.90;;;2.17;;
70838;SDS011;58464;52.298;4.852;2022-07-29T07:58:11;7.85;;;2.03;;
70838;SDS011;58464;52.298;4.852;2022-07-29T08:00:37;5.05;;;1.65;;
70838;SDS011;58464;52.298;4.852;2022-07-29T08:03:03;5.47;;;1.35;;
70838;SDS011;58464;52.298;4.852;2022-07-29T08:05:29;3.58;;;1.67;;
70838;SDS011;58464;52.298;4.852;2022-07-29T08:07:54;6.32;;;1.75;;
70838;SDS011;58464;52.298;4.852;2022-07-29T08:10:20;4.07;;;1.67;;
70838;SDS011;58464;52.298;4.852;2022-07-29T08:13:05;4.77;;;1.57;;
70838;SDS011;58464;52.298;4.852;2022-07-29T08:15:33;3.05;;;1.52;;
70838;SDS011;58464;52.298;4.852;2022-07-29T08:17:59;2.33;;;1.27;;
70838;SDS011;58464;52.298;4.852;2022-07-29T08:20:25;2.70;;;1.27;;
70838;SDS011;58464;52.298;4.852;2022-07-29T08:22:50;3.53;;;1.30;;
70838;SDS011;58464;52.298;4.852;2022-07-29T08:25:17;5.50;;;1.75;;
70838;SDS011;58464;52.298;4.852;2022-07-29T08:27:45;4.05;;;1.85;;
70838;SDS011;58464;52.298;4.852;2022-07-29T08:30:13;6.53;;;1.85;;
70838;SDS011;58464;52.298;4.852;2022-07-29T08:32:39;4.15;;;1.63;;
70838;SDS011;58464;52.298;4.852;2022-07-29T08:35:05;3.80;;;1.80;;
70838;SDS011;58464;52.298;4.852;2022-07-29T08:37:30;8.02;;;1.73;;
70838;SDS011;58464;52.298;4.852;2022-07-29T08:39:57;4.00;;;2.05;;
70838;SDS011;58464;52.298;4.852;2022-07-29T08:42:23;8.95;;;2.75;;
70838;SDS011;58464;52.298;4.852;2022-07-29T08:44:48;8.20;;;1.75;;
70838;SDS011;58464;52.298;4.852;2022-07-29T08:47:16;6.15;;;2.20;;
70838;SDS011;58464;52.298;4.852;2022-07-29T08:49:42;12.05;;;1.80;;
70838;SDS011;58464;52.298;4.852;2022-07-29T08:52:11;5.95;;;1.77;;
70838;SDS011;58464;52.298;4.852;2022-07-29T08:54:38;13.60;;;2.13;;
70838;SDS011;58464;52.298;4.852;2022-07-29T08:57:08;3.67;;;1.83;;
70838;SDS011;58464;52.298;4.852;2022-07-29T08:59:37;9.77;;;2.47;;
70838;SDS011;58464;52.298;4.852;2022-07-29T09:02:07;7.80;;;2.00;;
70838;SDS011;58464;52.298;4.852;2022-07-29T09:04:40;6.30;;;1.90;;
70838;SDS011;58464;52.298;4.852;2022-07-29T09:07:07;4.10;;;1.85;;
70838;SDS011;58464;52.298;4.852;2022-07-29T09:09:34;7.10;;;1.90;;
70838;SDS011;58464;52.298;4.852;2022-07-29T09:12:02;4.82;;;1.92;;
70838;SDS011;58464;52.298;4.852;2022-07-29T09:14:28;5.90;;;1.92;;
70838;SDS011;58464;52.298;4.852;2022-07-29T09:16:55;5.03;;;2.45;;
70838;SDS011;58464;52.298;4.852;2022-07-29T09:21:52;10.82;;;2.42;;
70838;SDS011;58464;52.298;4.852;2022-07-29T09:24:35;5.18;;;2.00;;
70838;SDS011;58464;52.298;4.852;2022-07-29T09:27:07;8.15;;;2.35;;
70838;SDS011;58464;52.298;4.852;2022-07-29T09:29:35;7.13;;;2.58;;
70838;SDS011;58464;52.298;4.852;2022-07-29T09:32:02;5.63;;;2.40;;
70838;SDS011;58464;52.298;4.852;2022-07-29T09:34:31;3.88;;;2.05;;
70838;SDS011;58464;52.298;4.852;2022-07-29T09:36:57;8.40;;;2.15;;
70838;SDS011;58464;52.298;4.852;2022-07-29T09:39:29;4.35;;;1.92;;
70838;SDS011;58464;52.298;4.852;2022-07-29T09:42:10;5.82;;;2.15;;
70838;SDS011;58464;52.298;4.852;2022-07-29T09:44:49;4.80;;;2.03;;
70838;SDS011;58464;52.298;4.852;2022-07-29T09:47:18;7.30;;;2.05;;
70838;SDS011;58464;52.298;4.852;2022-07-29T09:49:50;10.15;;;2.28;;
70838;SDS011;58464;52.298;4.852;2022-07-29T09:52:17;12.57;;;4.20;;
70838;SDS011;58464;52.298;4.852;2022-07-29T09:54:43;6.70;;;2.03;;
70838;SDS011;58464;52.298;4.852;2022-07-29T09:57:21;5.45;;;2.10;;
70838;SDS011;58464;52.298;4.852;2022-07-29T09:59:57;6.85;;;2.35;;
70838;SDS011;58464;52.298;4.852;2022-07-29T10:02:28;12.13;;;1.98;;
70838;SDS011;58464;52.298;4.852;2022-07-29T10:04:55;3.53;;;1.88;;
70838;SDS011;58464;52.298;4.852;2022-07-29T10:07:21;5.10;;;1.77;;
70838;SDS011;58464;52.298;4.852;2022-07-29T10:09:55;4.65;;;1.58;;
70838;SDS011;58464;52.298;4.852;2022-07-29T10:12:22;8.75;;;1.90;;
70838;SDS011;58464;52.298;4.852;2022-07-29T10:14:49;8.40;;;2.55;;
70838;SDS011;58464;52.298;4.852;2022-07-29T10:17:16;6.32;;;2.40;;
70838;SDS011;58464;52.298;4.852;2022-07-29T10:19:43;8.70;;;2.13;;
70838;SDS011;58464;52.298;4.852;2022-07-29T10:22:10;6.43;;;2.20;;
70838;SDS011;58464;52.298;4.852;2022-07-29T10:24:36;9.15;;;2.58;;
70838;SDS011;58464;52.298;4.852;2022-07-29T10:27:05;8.77;;;2.42;;
70838;SDS011;58464;52.298;4.852;2022-07-29T10:29:32;9.65;;;2.85;;
70838;SDS011;58464;52.298;4.852;2022-07-29T10:32:16;10.52;;;2.30;;
70838;SDS011;58464;52.298;4.852;2022-07-29T10:40:45;5.60;;;2.03;;
70838;SDS011;58464;52.298;4.852;2022-07-29T10:43:47;4.65;;;1.65;;
70838;SDS011;58464;52.298;4.852;2022-07-29T10:46:13;8.88;;;2.47;;
70838;SDS011;58464;52.298;4.852;2022-07-29T10:52:01;5.70;;;2.00;;
70838;SDS011;58464;52.298;4.852;2022-07-29T10:54:36;8.37;;;2.30;;
70838;SDS011;58464;52.298;4.852;2022-07-29T10:59:41;1.85;;;0.85;;
70838;SDS011;58464;52.298;4.852;2022-07-29T11:10:41;8.48;;;2.03;;
70838;SDS011;58464;52.298;4.852;2022-07-29T11:13:07;6.05;;;2.05;;
70838;SDS011;58464;52.298;4.852;2022-07-29T11:18:19;6.85;;;2.45;;
70838;SDS011;58464;52.298;4.852;2022-07-29T11:20:46;7.03;;;2.13;;
70838;SDS011;58464;52.298;4.852;2022-07-29T11:23:23;9.80;;;2.70;;
70838;SDS011;58464;52.298;4.852;2022-07-29T11:28:33;8.25;;;2.38;;
70838;SDS011;58464;52.298;4.852;2022-07-29T11:31:02;4.88;;;1.90;;
70838;SDS011;58464;52.298;4.852;2022-07-29T11:33:29;5.00;;;1.92;;
70838;SDS011;58464;52.298;4.852;2022-07-29T11:36:09;7.45;;;2.30;;
70838;SDS011;58464;52.298;4.852;2022-07-29T11:38:39;8.00;;;2.37;;
70838;SDS011;58464;52.298;4.852;2022-07-29T11:41:26;6.05;;;1.90;;
70838;SDS011;58464;52.298;4.852;2022-07-29T11:43:58;8.52;;;2.40;;
70838;SDS011;58464;52.298;4.852;2022-07-29T11:49:21;6.20;;;1.98;;
70838;SDS011;58464;52.298;4.852;2022-07-29T11:51:51;4.60;;;1.75;;
70838;SDS011;58464;52.298;4.852;2022-07-29T11:54:21;5.82;;;2.20;;
70838;SDS011;58464;52.298;4.852;2022-07-29T11:56:51;6.72;;;2.22;;
70838;SDS011;58464;52.298;4.852;2022-07-29T11:59:18;14.43;;;3.42;;
70838;SDS011;58464;52.298;4.852;2022-07-29T12:02:00;4.82;;;2.13;;
70838;SDS011;58464;52.298;4.852;2022-07-29T12:04:25;7.40;;;3.40;;
70838;SDS011;58464;52.298;4.852;2022-07-29T12:06:55;7.75;;;3.13;;
70838;SDS011;58464;52.298;4.852;2022-07-29T12:09:21;11.32;;;3.30;;
70838;SDS011;58464;52.298;4.852;2022-07-29T12:11:47;7.97;;;2.78;;
70838;SDS011;58464;52.298;4.852;2022-07-29T12:16:54;14.35;;;2.72;;
70838;SDS011;58464;52.298;4.852;2022-07-29T12:19:20;6.10;;;2.20;;
70838;SDS011;58464;52.298;4.852;2022-07-29T12:21:49;8.68;;;2.60;;
70838;SDS011;58464;52.298;4.852;2022-07-29T12:24:19;5.80;;;2.70;;
70838;SDS011;58464;52.298;4.852;2022-07-29T12:26:58;7.05;;;3.15;;
70838;SDS011;58464;52.298;4.852;2022-07-29T12:29:24;6.65;;;2.88;;
70838;SDS011;58464;52.298;4.852;2022-07-29T12:31:53;8.82;;;3.40;;
70838;SDS011;58464;52.298;4.852;2022-07-29T12:34:19;11.43;;;2.97;;
70838;SDS011;58464;52.298;4.852;2022-07-29T12:36:47;11.18;;;3.50;;
70838;SDS011;58464;52.298;4.852;2022-07-29T12:39:14;7.13;;;2.72;;
70838;SDS011;58464;52.298;4.852;2022-07-29T12:41:41;9.57;;;3.22;;
70838;SDS011;58464;52.298;4.852;2022-07-29T12:44:06;7.63;;;2.92;;
70838;SDS011;58464;52.298;4.852;2022-07-29T12:46:32;5.22;;;3.22;;
70838;SDS011;58464;52.298;4.852;2022-07-29T12:48:57;8.13;;;2.85;;
70838;SDS011;58464;52.298;4.852;2022-07-29T12:54:02;15.50;;;3.20;;
70838;SDS011;58464;52.298;4.852;2022-07-29T12:56:27;6.20;;;3.00;;
70838;SDS011;58464;52.298;4.852;2022-07-29T12:58:53;12.27;;;3.50;;
70838;SDS011;58464;52.298;4.852;2022-07-29T13:01:19;14.43;;;2.78;;
70838;SDS011;58464;52.298;4.852;2022-07-29T13:06:28;6.80;;;3.03;;
70838;SDS011;58464;52.298;4.852;2022-07-29T13:09:05;7.05;;;2.80;;
70838;SDS011;58464;52.298;4.852;2022-07-29T13:14:10;5.30;;;3.03;;
70838;SDS011;58464;52.298;4.852;2022-07-29T13:16:40;14.02;;;3.47;;
70838;SDS011;58464;52.298;4.852;2022-07-29T13:19:39;6.50;;;3.30;;
70838;SDS011;58464;52.298;4.852;2022-07-29T13:22:08;7.38;;;3.15;;
70838;SDS011;58464;52.298;4.852;2022-07-29T13:24:47;12.15;;;2.90;;
70838;SDS011;58464;52.298;4.852;2022-07-29T13:27:15;10.20;;;3.20;;
70838;SDS011;58464;52.298;4.852;2022-07-29T13:29:44;7.35;;;2.80;;
70838;SDS011;58464;52.298;4.852;2022-07-29T13:32:12;4.57;;;2.15;;
70838;SDS011;58464;52.298;4.852;2022-07-29T13:34:38;6.97;;;2.90;;
70838;SDS011;58464;52.298;4.852;2022-07-29T13:37:05;7.35;;;2.97;;
70838;SDS011;58464;52.298;4.852;2022-07-29T13:39:34;6.80;;;2.88;;
70838;SDS011;58464;52.298;4.852;2022-07-29T13:41:59;4.80;;;2.33;;
70838;SDS011;58464;52.298;4.852;2022-07-29T13:44:25;6.18;;;2.47;;
70838;SDS011;58464;52.298;4.852;2022-07-29T13:46:52;7.72;;;2.67;;
70838;SDS011;58464;52.298;4.852;2022-07-29T13:49:17;11.85;;;3.25;;
70838;SDS011;58464;52.298;4.852;2022-07-29T13:51:43;7.40;;;2.75;;
70838;SDS011;58464;52.298;4.852;2022-07-29T13:54:08;9.45;;;2.75;;
70838;SDS011;58464;52.298;4.852;2022-07-29T13:56:33;8.30;;;2.90;;
70838;SDS011;58464;52.298;4.852;2022-07-29T13:58:59;9.63;;;2.67;;
70838;SDS011;58464;52.298;4.852;2022-07-29T14:01:26;8.80;;;2.75;;
70838;SDS011;58464;52.298;4.852;2022-07-29T14:03:53;7.75;;;2.60;;
70838;SDS011;58464;52.298;4.852;2022-07-29T14:06:18;5.38;;;2.40;;
70838;SDS011;58464;52.298;4.852;2022-07-29T14:08:44;6.50;;;2.00;;
70838;SDS011;58464;52.298;4.852;2022-07-29T14:11:09;4.70;;;2.20;;
70838;SDS011;58464;52.298;4.852;2022-07-29T14:13:35;6.05;;;2.40;;
70838;SDS011;58464;52.298;4.852;2022-07-29T14:16:00;8.48;;;3.30;;
70838;SDS011;58464;52.298;4.852;2022-07-29T14:18:27;10.77;;;2.92;;
70838;SDS011;58464;52.298;4.852;2022-07-29T14:20:53;6.15;;;2.03;;
70838;SDS011;58464;52.298;4.852;2022-07-29T14:23:19;6.07;;;2.22;;
70838;SDS011;58464;52.298;4.852;2022-07-29T14:25:45;6.68;;;2.20;;
70838;SDS011;58464;52.298;4.852;2022-07-29T14:28:12;5.10;;;2.17;;
70838;SDS011;58464;52.298;4.852;2022-07-29T14:30:38;4.70;;;2.38;;
70838;SDS011;58464;52.298;4.852;2022-07-29T14:33:03;6.18;;;2.80;;
70838;SDS011;58464;52.298;4.852;2022-07-29T14:35:29;11.55;;;2.92;;
70838;SDS011;58464;52.298;4.852;2022-07-29T14:37:54;9.55;;;2.72;;
70838;SDS011;58464;52.298;4.852;2022-07-29T14:40:22;6.80;;;2.13;;
70838;SDS011;58464;52.298;4.852;2022-07-29T14:42:47;7.72;;;2.40;;
70838;SDS011;58464;52.298;4.852;2022-07-29T14:45:13;6.60;;;2.22;;
70838;SDS011;58464;52.298;4.852;2022-07-29T14:47:39;6.53;;;2.30;;
70838;SDS011;58464;52.298;4.852;2022-07-29T14:50:05;10.60;;;2.28;;
70838;SDS011;58464;52.298;4.852;2022-07-29T14:52:44;6.88;;;2.50;;
70838;SDS011;58464;52.298;4.852;2022-07-29T14:55:10;6.25;;;2.35;;
70838;SDS011;58464;52.298;4.852;2022-07-29T14:57:35;9.52;;;2.50;;
70838;SDS011;58464;52.298;4.852;2022-07-29T15:00:03;4.95;;;2.03;;
70838;SDS011;58464;52.298;4.852;2022-07-29T15:02:31;6.00;;;2.22;;
70838;SDS011;58464;52.298;4.852;2022-07-29T15:04:57;6.03;;;2.55;;
70838;SDS011;58464;52.298;4.852;2022-07-29T15:07:23;6.95;;;2.17;;
70838;SDS011;58464;52.298;4.852;2022-07-29T15:09:48;6.80;;;2.33;;
70838;SDS011;58464;52.298;4.852;2022-07-29T15:12:14;4.90;;;2.40;;
70838;SDS011;58464;52.298;4.852;2022-07-29T15:14:39;4.25;;;1.92;;
70838;SDS011;58464;52.298;4.852;2022-07-29T15:17:04;5.63;;;2.33;;
70838;SDS011;58464;52.298;4.852;2022-07-29T15:19:30;7.45;;;2.60;;
70838;SDS011;58464;52.298;4.852;2022-07-29T15:21:55;11.13;;;2.67;;
70838;SDS011;58464;52.298;4.852;2022-07-29T15:24:21;7.30;;;2.03;;
70838;SDS011;58464;52.298;4.852;2022-07-29T15:26:46;5.70;;;2.22;;
70838;SDS011;58464;52.298;4.852;2022-07-29T15:29:12;7.28;;;1.45;;
70838;SDS011;58464;52.298;4.852;2022-07-29T15:31:38;9.10;;;2.10;;
70838;SDS011;58464;52.298;4.852;2022-07-29T15:34:04;7.18;;;2.25;;
70838;SDS011;58464;52.298;4.852;2022-07-29T15:36:30;10.07;;;2.15;;
70838;SDS011;58464;52.298;4.852;2022-07-29T15:38:56;7.57;;;2.17;;
70838;SDS011;58464;52.298;4.852;2022-07-29T15:41:21;6.53;;;2.13;;
70838;SDS011;58464;52.298;4.852;2022-07-29T15:43:47;4.38;;;1.80;;